sensor_id;sensor_type;location;lat;lon;timestamp;P1;durP1;ratioP1;P2;durP2;ratioP2
68583;SDS011;55557;49.220;11.150;2023-04-03T00:01:15;2.53;;;1.77;;
68583;SDS011;55557;49.220;11.150;2023-04-03T00:03:41;4.27;;;1.93;;
68583;SDS011;55557;49.220;11.150;2023-04-03T00:06:08;1.77;;;1.63;;
68583;SDS011;55557;49.220;11.150;2023-04-03T00:08:35;2.93;;;1.93;;
68583;SDS011;55557;49.220;11.150;2023-04-03T00:11:01;2.93;;;2.20;;
68583;SDS011;55557;49.220;11.150;2023-04-03T00:13:28;3.07;;;2.10;;
68583;SDS011;55557;49.220;11.150;2023-04-03T00:15:54;2.73;;;2.20;;
68583;SDS011;55557;49.220;11.150;2023-04-03T00:18:20;7.93;;;2.87;;
68583;SDS011;55557;49.220;11.150;2023-04-03T00:20:47;2.30;;;2.10;;
68583;SDS011;55557;49.220;11.150;2023-04-03T00:23:13;4.60;;;1.97;;
68583;SDS011;55557;49.220;11.150;2023-04-03T00:25:39;2.57;;;1.57;;
68583;SDS011;55557;49.220;11.150;2023-04-03T00:28:05;1.70;;;1.57;;
68583;SDS011;55557;49.220;11.150;2023-04-03T00:30:32;1.50;;;1.40;;
68583;SDS011;55557;49.220;11.150;2023-04-03T00:32:58;2.93;;;2.63;;
68583;SDS011;55557;49.220;11.150;2023-04-03T00:35:25;5.53;;;2.77;;
68583;SDS011;55557;49.220;11.150;2023-04-03T00:37:52;2.73;;;1.70;;
68583;SDS011;55557;49.220;11.150;2023-04-03T00:40:18;3.17;;;1.93;;
68583;SDS011;55557;49.220;11.150;2023-04-03T00:42:45;2.50;;;1.73;;
68583;SDS011;55557;49.220;11.150;2023-04-03T00:47:43;1.60;;;1.50;;
68583;SDS011;55557;49.220;11.150;2023-04-03T00:50:10;2.10;;;1.90;;
68583;SDS011;55557;49.220;11.150;2023-04-03T00:52:36;1.70;;;1.60;;
68583;SDS011;55557;49.220;11.150;2023-04-03T00:55:04;2.03;;;1.83;;
68583;SDS011;55557;49.220;11.150;2023-04-03T00:57:31;2.03;;;1.83;;
68583;SDS011;55557;49.220;11.150;2023-04-03T00:59:59;2.00;;;1.53;;
68583;SDS011;55557;49.220;11.150;2023-04-03T01:02:26;2.27;;;1.90;;
68583;SDS011;55557;49.220;11.150;2023-04-03T01:04:52;1.50;;;1.40;;
68583;SDS011;55557;49.220;11.150;2023-04-03T01:07:20;1.70;;;1.60;;
68583;SDS011;55557;49.220;11.150;2023-04-03T01:09:47;1.83;;;1.53;;
68583;SDS011;55557;49.220;11.150;2023-04-03T01:14:41;2.73;;;1.57;;
68583;SDS011;55557;49.220;11.150;2023-04-03T01:19:56;2.27;;;1.70;;
68583;SDS011;55557;49.220;11.150;2023-04-03T01:22:34;4.13;;;1.80;;
68583;SDS011;55557;49.220;11.150;2023-04-03T01:25:02;2.00;;;1.83;;
68583;SDS011;55557;49.220;11.150;2023-04-03T01:27:28;1.67;;;1.57;;
68583;SDS011;55557;49.220;11.150;2023-04-03T01:29:54;4.60;;;1.73;;
68583;SDS011;55557;49.220;11.150;2023-04-03T01:32:20;2.40;;;1.40;;
68583;SDS011;55557;49.220;11.150;2023-04-03T01:34:46;2.10;;;1.60;;
68583;SDS011;55557;49.220;11.150;2023-04-03T01:37:12;2.80;;;1.53;;
68583;SDS011;55557;49.220;11.150;2023-04-03T01:39:38;2.10;;;1.47;;
68583;SDS011;55557;49.220;11.150;2023-04-03T01:42:04;1.40;;;1.30;;
68583;SDS011;55557;49.220;11.150;2023-04-03T01:44:30;2.27;;;1.80;;
68583;SDS011;55557;49.220;11.150;2023-04-03T01:46:56;2.03;;;1.63;;
68583;SDS011;55557;49.220;11.150;2023-04-03T01:49:22;2.30;;;1.90;;
68583;SDS011;55557;49.220;11.150;2023-04-03T01:51:48;2.17;;;1.40;;
68583;SDS011;55557;49.220;11.150;2023-04-03T01:54:14;1.77;;;1.57;;
68583;SDS011;55557;49.220;11.150;2023-04-03T01:56:40;2.07;;;1.60;;
68583;SDS011;55557;49.220;11.150;2023-04-03T01:59:06;2.23;;;1.53;;
68583;SDS011;55557;49.220;11.150;2023-04-03T02:01:32;2.00;;;1.70;;
68583;SDS011;55557;49.220;11.150;2023-04-03T02:03:58;4.90;;;2.03;;
68583;SDS011;55557;49.220;11.150;2023-04-03T02:06:24;2.53;;;1.80;;
68583;SDS011;55557;49.220;11.150;2023-04-03T02:08:51;1.67;;;1.57;;
68583;SDS011;55557;49.220;11.150;2023-04-03T02:11:16;2.17;;;1.80;;
68583;SDS011;55557;49.220;11.150;2023-04-03T02:13:42;4.40;;;2.20;;
68583;SDS011;55557;49.220;11.150;2023-04-03T02:16:09;2.47;;;1.80;;
68583;SDS011;55557;49.220;11.150;2023-04-03T02:18:36;3.90;;;2.10;;
68583;SDS011;55557;49.220;11.150;2023-04-03T02:21:02;3.00;;;1.20;;
68583;SDS011;55557;49.220;11.150;2023-04-03T02:23:28;3.80;;;1.60;;
68583;SDS011;55557;49.220;11.150;2023-04-03T02:26:02;1.97;;;1.60;;
68583;SDS011;55557;49.220;11.150;2023-04-03T02:28:28;1.60;;;1.50;;
68583;SDS011;55557;49.220;11.150;2023-04-03T02:30:53;2.03;;;1.70;;
68583;SDS011;55557;49.220;11.150;2023-04-03T02:33:19;5.77;;;2.23;;
68583;SDS011;55557;49.220;11.150;2023-04-03T02:35:45;4.97;;;2.70;;
68583;SDS011;55557;49.220;11.150;2023-04-03T02:38:18;2.47;;;1.73;;
68583;SDS011;55557;49.220;11.150;2023-04-03T02:40:44;1.97;;;1.77;;
68583;SDS011;55557;49.220;11.150;2023-04-03T02:43:10;1.90;;;1.53;;
68583;SDS011;55557;49.220;11.150;2023-04-03T02:45:36;1.83;;;1.73;;
68583;SDS011;55557;49.220;11.150;2023-04-03T02:48:02;2.23;;;2.03;;
68583;SDS011;55557;49.220;11.150;2023-04-03T02:50:28;2.80;;;1.50;;
68583;SDS011;55557;49.220;11.150;2023-04-03T02:52:54;2.00;;;1.80;;
68583;SDS011;55557;49.220;11.150;2023-04-03T02:55:20;1.87;;;1.70;;
68583;SDS011;55557;49.220;11.150;2023-04-03T02:57:48;2.20;;;1.70;;
68583;SDS011;55557;49.220;11.150;2023-04-03T03:00:14;2.17;;;1.50;;
68583;SDS011;55557;49.220;11.150;2023-04-03T03:02:40;2.57;;;1.50;;
68583;SDS011;55557;49.220;11.150;2023-04-03T03:05:06;3.57;;;1.97;;
68583;SDS011;55557;49.220;11.150;2023-04-03T03:07:32;1.90;;;1.60;;
68583;SDS011;55557;49.220;11.150;2023-04-03T03:09:58;2.40;;;1.90;;
68583;SDS011;55557;49.220;11.150;2023-04-03T03:12:24;4.07;;;2.53;;
68583;SDS011;55557;49.220;11.150;2023-04-03T03:14:50;3.67;;;2.67;;
68583;SDS011;55557;49.220;11.150;2023-04-03T03:17:16;2.73;;;2.10;;
68583;SDS011;55557;49.220;11.150;2023-04-03T03:19:43;5.60;;;2.00;;
68583;SDS011;55557;49.220;11.150;2023-04-03T03:22:10;2.57;;;1.70;;
68583;SDS011;55557;49.220;11.150;2023-04-03T03:24:36;2.13;;;1.73;;
68583;SDS011;55557;49.220;11.150;2023-04-03T03:27:02;1.63;;;1.50;;
68583;SDS011;55557;49.220;11.150;2023-04-03T03:29:28;4.50;;;2.10;;
68583;SDS011;55557;49.220;11.150;2023-04-03T03:31:54;3.60;;;2.10;;
68583;SDS011;55557;49.220;11.150;2023-04-03T03:34:20;2.27;;;2.07;;
68583;SDS011;55557;49.220;11.150;2023-04-03T03:36:46;6.10;;;2.10;;
68583;SDS011;55557;49.220;11.150;2023-04-03T03:39:12;3.50;;;1.87;;
68583;SDS011;55557;49.220;11.150;2023-04-03T03:41:38;1.60;;;1.33;;
68583;SDS011;55557;49.220;11.150;2023-04-03T03:44:04;3.53;;;1.80;;
68583;SDS011;55557;49.220;11.150;2023-04-03T03:46:30;2.67;;;2.13;;
68583;SDS011;55557;49.220;11.150;2023-04-03T03:48:56;2.17;;;1.80;;
68583;SDS011;55557;49.220;11.150;2023-04-03T03:51:22;2.20;;;2.00;;
68583;SDS011;55557;49.220;11.150;2023-04-03T03:53:48;5.50;;;3.00;;
68583;SDS011;55557;49.220;11.150;2023-04-03T03:56:14;6.43;;;3.53;;
68583;SDS011;55557;49.220;11.150;2023-04-03T03:58:40;4.20;;;2.87;;
68583;SDS011;55557;49.220;11.150;2023-04-03T04:01:06;4.27;;;2.50;;
68583;SDS011;55557;49.220;11.150;2023-04-03T04:03:32;1.93;;;1.83;;
68583;SDS011;55557;49.220;11.150;2023-04-03T04:05:58;2.93;;;1.90;;
68583;SDS011;55557;49.220;11.150;2023-04-03T04:08:25;5.97;;;2.17;;
68583;SDS011;55557;49.220;11.150;2023-04-03T04:10:51;4.47;;;2.47;;
68583;SDS011;55557;49.220;11.150;2023-04-03T04:13:17;2.30;;;1.90;;
68583;SDS011;55557;49.220;11.150;2023-04-03T04:15:43;6.60;;;2.40;;
68583;SDS011;55557;49.220;11.150;2023-04-03T04:18:09;3.13;;;1.87;;
68583;SDS011;55557;49.220;11.150;2023-04-03T04:20:35;3.23;;;1.90;;
68583;SDS011;55557;49.220;11.150;2023-04-03T04:23:01;2.37;;;1.80;;
68583;SDS011;55557;49.220;11.150;2023-04-03T04:25:27;2.53;;;1.90;;
68583;SDS011;55557;49.220;11.150;2023-04-03T04:27:53;2.80;;;2.00;;
68583;SDS011;55557;49.220;11.150;2023-04-03T04:30:18;3.30;;;2.10;;
68583;SDS011;55557;49.220;11.150;2023-04-03T04:32:44;1.83;;;1.70;;
68583;SDS011;55557;49.220;11.150;2023-04-03T04:35:10;4.10;;;2.20;;
68583;SDS011;55557;49.220;11.150;2023-04-03T04:37:37;1.67;;;1.47;;
68583;SDS011;55557;49.220;11.150;2023-04-03T04:40:03;2.20;;;1.90;;
68583;SDS011;55557;49.220;11.150;2023-04-03T04:42:29;8.23;;;5.47;;
68583;SDS011;55557;49.220;11.150;2023-04-03T04:44:55;7.70;;;5.00;;
68583;SDS011;55557;49.220;11.150;2023-04-03T04:47:21;3.23;;;2.83;;
68583;SDS011;55557;49.220;11.150;2023-04-03T04:49:47;3.13;;;2.83;;
68583;SDS011;55557;49.220;11.150;2023-04-03T04:52:16;4.50;;;2.47;;
68583;SDS011;55557;49.220;11.150;2023-04-03T04:54:42;5.67;;;1.90;;
68583;SDS011;55557;49.220;11.150;2023-04-03T04:57:08;3.23;;;2.17;;
68583;SDS011;55557;49.220;11.150;2023-04-03T04:59:34;2.33;;;2.10;;
68583;SDS011;55557;49.220;11.150;2023-04-03T05:02:02;2.50;;;2.17;;
68583;SDS011;55557;49.220;11.150;2023-04-03T05:04:28;2.00;;;1.83;;
68583;SDS011;55557;49.220;11.150;2023-04-03T05:06:54;2.57;;;1.70;;
68583;SDS011;55557;49.220;11.150;2023-04-03T05:09:20;3.97;;;2.40;;
68583;SDS011;55557;49.220;11.150;2023-04-03T05:11:47;3.00;;;2.23;;
68583;SDS011;55557;49.220;11.150;2023-04-03T05:14:13;3.40;;;2.83;;
68583;SDS011;55557;49.220;11.150;2023-04-03T05:16:39;4.97;;;3.80;;
68583;SDS011;55557;49.220;11.150;2023-04-03T05:19:05;6.27;;;5.00;;
68583;SDS011;55557;49.220;11.150;2023-04-03T05:21:31;5.93;;;5.03;;
68583;SDS011;55557;49.220;11.150;2023-04-03T05:23:58;5.40;;;4.73;;
68583;SDS011;55557;49.220;11.150;2023-04-03T05:26:24;4.33;;;3.93;;
68583;SDS011;55557;49.220;11.150;2023-04-03T05:28:51;5.97;;;2.70;;
68583;SDS011;55557;49.220;11.150;2023-04-03T05:31:17;2.57;;;2.10;;
68583;SDS011;55557;49.220;11.150;2023-04-03T05:33:43;5.17;;;2.87;;
68583;SDS011;55557;49.220;11.150;2023-04-03T05:36:09;5.87;;;4.13;;
68583;SDS011;55557;49.220;11.150;2023-04-03T05:38:35;6.53;;;4.17;;
68583;SDS011;55557;49.220;11.150;2023-04-03T05:41:01;5.77;;;3.20;;
68583;SDS011;55557;49.220;11.150;2023-04-03T05:43:27;3.97;;;3.07;;
68583;SDS011;55557;49.220;11.150;2023-04-03T05:45:53;7.30;;;2.47;;
68583;SDS011;55557;49.220;11.150;2023-04-03T05:48:19;3.43;;;2.33;;
68583;SDS011;55557;49.220;11.150;2023-04-03T05:50:45;7.73;;;3.73;;
68583;SDS011;55557;49.220;11.150;2023-04-03T05:53:19;5.53;;;4.67;;
68583;SDS011;55557;49.220;11.150;2023-04-03T05:55:47;4.33;;;3.40;;
68583;SDS011;55557;49.220;11.150;2023-04-03T05:58:13;4.63;;;2.60;;
68583;SDS011;55557;49.220;11.150;2023-04-03T06:00:39;2.67;;;2.30;;
68583;SDS011;55557;49.220;11.150;2023-04-03T06:03:05;2.43;;;1.67;;
68583;SDS011;55557;49.220;11.150;2023-04-03T06:05:31;3.20;;;2.00;;
68583;SDS011;55557;49.220;11.150;2023-04-03T06:07:57;3.37;;;2.00;;
68583;SDS011;55557;49.220;11.150;2023-04-03T06:10:23;3.63;;;2.10;;
68583;SDS011;55557;49.220;11.150;2023-04-03T06:12:50;1.90;;;1.73;;
68583;SDS011;55557;49.220;11.150;2023-04-03T06:15:16;4.93;;;2.93;;
68583;SDS011;55557;49.220;11.150;2023-04-03T06:17:42;3.10;;;2.50;;
68583;SDS011;55557;49.220;11.150;2023-04-03T06:20:08;3.73;;;2.63;;
68583;SDS011;55557;49.220;11.150;2023-04-03T06:22:35;2.80;;;2.13;;
68583;SDS011;55557;49.220;11.150;2023-04-03T06:25:01;2.23;;;1.80;;
68583;SDS011;55557;49.220;11.150;2023-04-03T06:27:27;3.83;;;2.40;;
68583;SDS011;55557;49.220;11.150;2023-04-03T06:29:53;2.30;;;2.00;;
68583;SDS011;55557;49.220;11.150;2023-04-03T06:32:19;3.43;;;2.20;;
68583;SDS011;55557;49.220;11.150;2023-04-03T06:34:45;2.77;;;2.00;;
68583;SDS011;55557;49.220;11.150;2023-04-03T06:37:15;4.17;;;2.37;;
68583;SDS011;55557;49.220;11.150;2023-04-03T06:39:42;4.63;;;2.77;;
68583;SDS011;55557;49.220;11.150;2023-04-03T06:42:08;5.30;;;1.93;;
68583;SDS011;55557;49.220;11.150;2023-04-03T06:44:34;3.67;;;2.37;;
68583;SDS011;55557;49.220;11.150;2023-04-03T06:47:00;5.63;;;2.87;;
68583;SDS011;55557;49.220;11.150;2023-04-03T06:49:26;6.03;;;2.93;;
68583;SDS011;55557;49.220;11.150;2023-04-03T06:51:53;3.13;;;2.00;;
68583;SDS011;55557;49.220;11.150;2023-04-03T06:54:20;2.93;;;1.90;;
68583;SDS011;55557;49.220;11.150;2023-04-03T06:56:46;3.23;;;2.13;;
68583;SDS011;55557;49.220;11.150;2023-04-03T06:59:12;3.47;;;2.27;;
68583;SDS011;55557;49.220;11.150;2023-04-03T07:01:41;5.10;;;2.30;;
68583;SDS011;55557;49.220;11.150;2023-04-03T07:04:07;6.80;;;2.03;;
68583;SDS011;55557;49.220;11.150;2023-04-03T07:06:33;5.97;;;2.00;;
68583;SDS011;55557;49.220;11.150;2023-04-03T07:09:00;10.13;;;2.97;;
68583;SDS011;55557;49.220;11.150;2023-04-03T07:11:26;2.80;;;1.90;;
68583;SDS011;55557;49.220;11.150;2023-04-03T07:13:52;3.47;;;2.27;;
68583;SDS011;55557;49.220;11.150;2023-04-03T07:16:18;4.87;;;2.53;;
68583;SDS011;55557;49.220;11.150;2023-04-03T07:18:45;3.47;;;2.10;;
68583;SDS011;55557;49.220;11.150;2023-04-03T07:21:11;6.30;;;2.00;;
68583;SDS011;55557;49.220;11.150;2023-04-03T07:23:37;5.60;;;2.67;;
68583;SDS011;55557;49.220;11.150;2023-04-03T07:26:03;4.03;;;2.17;;
68583;SDS011;55557;49.220;11.150;2023-04-03T07:28:30;2.97;;;1.87;;
68583;SDS011;55557;49.220;11.150;2023-04-03T07:31:01;3.20;;;1.83;;
68583;SDS011;55557;49.220;11.150;2023-04-03T07:33:27;4.13;;;2.20;;
68583;SDS011;55557;49.220;11.150;2023-04-03T07:35:53;2.73;;;1.83;;
68583;SDS011;55557;49.220;11.150;2023-04-03T07:38:19;3.43;;;2.17;;
68583;SDS011;55557;49.220;11.150;2023-04-03T07:40:49;2.67;;;2.10;;
68583;SDS011;55557;49.220;11.150;2023-04-03T07:43:16;1.83;;;1.67;;
68583;SDS011;55557;49.220;11.150;2023-04-03T07:45:42;4.83;;;2.30;;
68583;SDS011;55557;49.220;11.150;2023-04-03T07:48:09;3.30;;;2.20;;
68583;SDS011;55557;49.220;11.150;2023-04-03T07:50:35;3.70;;;2.43;;
68583;SDS011;55557;49.220;11.150;2023-04-03T07:53:02;2.57;;;2.20;;
68583;SDS011;55557;49.220;11.150;2023-04-03T07:55:28;2.53;;;2.13;;
68583;SDS011;55557;49.220;11.150;2023-04-03T07:57:54;1.63;;;1.53;;
68583;SDS011;55557;49.220;11.150;2023-04-03T08:00:21;7.03;;;2.13;;
68583;SDS011;55557;49.220;11.150;2023-04-03T08:02:47;3.23;;;2.33;;
68583;SDS011;55557;49.220;11.150;2023-04-03T08:05:19;5.30;;;2.40;;
68583;SDS011;55557;49.220;11.150;2023-04-03T08:07:46;6.03;;;2.50;;
68583;SDS011;55557;49.220;11.150;2023-04-03T08:10:12;3.17;;;2.13;;
68583;SDS011;55557;49.220;11.150;2023-04-03T08:12:39;3.63;;;2.10;;
68583;SDS011;55557;49.220;11.150;2023-04-03T08:15:05;4.10;;;2.17;;
68583;SDS011;55557;49.220;11.150;2023-04-03T08:17:32;4.03;;;2.10;;
68583;SDS011;55557;49.220;11.150;2023-04-03T08:19:58;3.63;;;2.40;;
68583;SDS011;55557;49.220;11.150;2023-04-03T08:22:24;3.47;;;1.80;;
68583;SDS011;55557;49.220;11.150;2023-04-03T08:24:50;4.03;;;1.87;;
68583;SDS011;55557;49.220;11.150;2023-04-03T08:27:16;4.13;;;2.03;;
68583;SDS011;55557;49.220;11.150;2023-04-03T08:29:42;3.87;;;1.90;;
68583;SDS011;55557;49.220;11.150;2023-04-03T08:32:08;2.70;;;1.90;;
68583;SDS011;55557;49.220;11.150;2023-04-03T08:34:34;5.50;;;2.30;;
68583;SDS011;55557;49.220;11.150;2023-04-03T08:37:01;2.37;;;1.93;;
68583;SDS011;55557;49.220;11.150;2023-04-03T08:39:27;4.90;;;1.90;;
68583;SDS011;55557;49.220;11.150;2023-04-03T08:41:55;3.20;;;1.60;;
68583;SDS011;55557;49.220;11.150;2023-04-03T08:49:36;2.90;;;1.70;;
68583;SDS011;55557;49.220;11.150;2023-04-03T08:52:10;4.83;;;1.57;;
68583;SDS011;55557;49.220;11.150;2023-04-03T08:54:41;2.77;;;1.73;;
68583;SDS011;55557;49.220;11.150;2023-04-03T08:57:13;2.37;;;1.60;;
68583;SDS011;55557;49.220;11.150;2023-04-03T08:59:39;3.07;;;1.87;;
68583;SDS011;55557;49.220;11.150;2023-04-03T09:03:10;2.87;;;1.60;;
68583;SDS011;55557;49.220;11.150;2023-04-03T09:05:02;3.10;;;1.50;;
68583;SDS011;55557;49.220;11.150;2023-04-03T09:07:33;4.60;;;1.60;;
68583;SDS011;55557;49.220;11.150;2023-04-03T09:10:02;5.30;;;1.73;;
68583;SDS011;55557;49.220;11.150;2023-04-03T09:12:33;2.57;;;1.53;;
68583;SDS011;55557;49.220;11.150;2023-04-03T09:20:25;3.37;;;1.60;;
68583;SDS011;55557;49.220;11.150;2023-04-03T09:22:54;1.73;;;1.47;;
68583;SDS011;55557;49.220;11.150;2023-04-03T09:25:25;4.93;;;1.70;;
68583;SDS011;55557;49.220;11.150;2023-04-03T09:27:51;2.47;;;1.63;;
68583;SDS011;55557;49.220;11.150;2023-04-03T09:30:18;3.10;;;1.70;;
68583;SDS011;55557;49.220;11.150;2023-04-03T09:32:45;1.57;;;1.47;;
68583;SDS011;55557;49.220;11.150;2023-04-03T09:37:55;3.87;;;1.90;;
68583;SDS011;55557;49.220;11.150;2023-04-03T09:42:51;4.17;;;1.73;;
68583;SDS011;55557;49.220;11.150;2023-04-03T09:45:22;5.20;;;2.00;;
68583;SDS011;55557;49.220;11.150;2023-04-03T09:47:48;3.70;;;1.90;;
68583;SDS011;55557;49.220;11.150;2023-04-03T09:52:43;2.73;;;1.60;;
68583;SDS011;55557;49.220;11.150;2023-04-03T09:57:41;2.07;;;1.33;;
68583;SDS011;55557;49.220;11.150;2023-04-03T10:00:22;1.70;;;1.20;;
68583;SDS011;55557;49.220;11.150;2023-04-03T10:02:50;2.43;;;1.03;;
68583;SDS011;55557;49.220;11.150;2023-04-03T10:05:50;1.37;;;1.23;;
68583;SDS011;55557;49.220;11.150;2023-04-03T10:08:31;5.43;;;1.37;;
68583;SDS011;55557;49.220;11.150;2023-04-03T10:13:31;2.77;;;1.37;;
68583;SDS011;55557;49.220;11.150;2023-04-03T10:16:07;2.10;;;1.20;;
68583;SDS011;55557;49.220;11.150;2023-04-03T10:21:13;3.37;;;1.20;;
68583;SDS011;55557;49.220;11.150;2023-04-03T10:23:43;3.10;;;1.30;;
68583;SDS011;55557;49.220;11.150;2023-04-03T10:26:23;1.93;;;1.07;;
68583;SDS011;55557;49.220;11.150;2023-04-03T10:29:07;2.93;;;1.50;;
68583;SDS011;55557;49.220;11.150;2023-04-03T10:39:14;3.67;;;1.47;;
68583;SDS011;55557;49.220;11.150;2023-04-03T10:42:02;4.00;;;1.37;;
68583;SDS011;55557;49.220;11.150;2023-04-03T10:52:48;1.50;;;0.97;;
68583;SDS011;55557;49.220;11.150;2023-04-03T10:55:34;2.50;;;1.43;;
68583;SDS011;55557;49.220;11.150;2023-04-03T10:58:02;2.30;;;1.37;;
68583;SDS011;55557;49.220;11.150;2023-04-03T11:00:35;2.87;;;1.57;;
68583;SDS011;55557;49.220;11.150;2023-04-03T11:03:06;2.00;;;1.43;;
68583;SDS011;55557;49.220;11.150;2023-04-03T11:05:42;2.23;;;1.43;;
68583;SDS011;55557;49.220;11.150;2023-04-03T11:08:15;1.90;;;1.60;;
68583;SDS011;55557;49.220;11.150;2023-04-03T11:10:48;3.00;;;1.67;;
68583;SDS011;55557;49.220;11.150;2023-04-03T11:13:17;3.33;;;1.47;;
68583;SDS011;55557;49.220;11.150;2023-04-03T11:15:44;3.73;;;1.70;;
68583;SDS011;55557;49.220;11.150;2023-04-03T11:18:19;3.03;;;1.77;;
68583;SDS011;55557;49.220;11.150;2023-04-03T11:20:50;4.00;;;1.60;;
68583;SDS011;55557;49.220;11.150;2023-04-03T11:23:21;3.70;;;1.50;;
68583;SDS011;55557;49.220;11.150;2023-04-03T11:25:50;3.13;;;1.63;;
68583;SDS011;55557;49.220;11.150;2023-04-03T11:28:17;2.63;;;1.63;;
68583;SDS011;55557;49.220;11.150;2023-04-03T11:30:48;2.70;;;1.70;;
68583;SDS011;55557;49.220;11.150;2023-04-03T11:36:09;5.40;;;1.40;;
68583;SDS011;55557;49.220;11.150;2023-04-03T11:38:36;5.23;;;1.37;;
68583;SDS011;55557;49.220;11.150;2023-04-03T11:41:06;5.70;;;1.20;;
68583;SDS011;55557;49.220;11.150;2023-04-03T11:43:33;5.13;;;1.90;;
68583;SDS011;55557;49.220;11.150;2023-04-03T11:45:59;3.13;;;1.70;;
68583;SDS011;55557;49.220;11.150;2023-04-03T11:50:53;1.67;;;1.30;;
68583;SDS011;55557;49.220;11.150;2023-04-03T11:55:55;2.87;;;1.17;;
68583;SDS011;55557;49.220;11.150;2023-04-03T11:58:26;2.47;;;1.37;;
68583;SDS011;55557;49.220;11.150;2023-04-03T12:00:53;1.93;;;1.30;;
68583;SDS011;55557;49.220;11.150;2023-04-03T12:05:49;1.90;;;1.23;;
68583;SDS011;55557;49.220;11.150;2023-04-03T12:09:01;1.60;;;1.23;;
68583;SDS011;55557;49.220;11.150;2023-04-03T12:13:35;2.03;;;1.40;;
68583;SDS011;55557;49.220;11.150;2023-04-03T12:16:02;1.47;;;1.37;;
68583;SDS011;55557;49.220;11.150;2023-04-03T12:20:57;2.03;;;1.60;;
68583;SDS011;55557;49.220;11.150;2023-04-03T12:25:50;2.20;;;1.33;;
68583;SDS011;55557;49.220;11.150;2023-04-03T12:28:16;1.80;;;1.50;;
68583;SDS011;55557;49.220;11.150;2023-04-03T12:30:42;2.93;;;1.30;;
68583;SDS011;55557;49.220;11.150;2023-04-03T12:38:33;2.60;;;1.10;;
68583;SDS011;55557;49.220;11.150;2023-04-03T12:41:10;2.30;;;1.20;;
68583;SDS011;55557;49.220;11.150;2023-04-03T12:46:23;5.10;;;1.67;;
68583;SDS011;55557;49.220;11.150;2023-04-03T12:48:58;1.23;;;1.13;;
68583;SDS011;55557;49.220;11.150;2023-04-03T12:51:31;2.00;;;1.10;;
68583;SDS011;55557;49.220;11.150;2023-04-03T12:54:03;1.83;;;1.13;;
68583;SDS011;55557;49.220;11.150;2023-04-03T12:56:31;2.47;;;1.17;;
68583;SDS011;55557;49.220;11.150;2023-04-03T13:01:41;3.70;;;1.73;;
68583;SDS011;55557;49.220;11.150;2023-04-03T13:04:07;2.30;;;1.47;;
68583;SDS011;55557;49.220;11.150;2023-04-03T13:06:41;2.07;;;1.40;;
68583;SDS011;55557;49.220;11.150;2023-04-03T13:11:51;1.17;;;0.83;;
68583;SDS011;55557;49.220;11.150;2023-04-03T13:14:21;3.60;;;1.40;;
68583;SDS011;55557;49.220;11.150;2023-04-03T13:19:20;3.17;;;1.10;;
68583;SDS011;55557;49.220;11.150;2023-04-03T13:21:48;2.73;;;1.40;;
68583;SDS011;55557;49.220;11.150;2023-04-03T13:24:16;2.03;;;1.07;;
68583;SDS011;55557;49.220;11.150;2023-04-03T13:26:42;2.83;;;1.13;;
68583;SDS011;55557;49.220;11.150;2023-04-03T13:29:18;1.80;;;1.23;;
68583;SDS011;55557;49.220;11.150;2023-04-03T13:31:45;3.27;;;1.20;;
68583;SDS011;55557;49.220;11.150;2023-04-03T13:34:12;2.93;;;1.10;;
68583;SDS011;55557;49.220;11.150;2023-04-03T13:36:40;1.60;;;1.30;;
68583;SDS011;55557;49.220;11.150;2023-04-03T13:39:20;1.27;;;1.17;;
68583;SDS011;55557;49.220;11.150;2023-04-03T13:41:49;2.33;;;1.13;;
68583;SDS011;55557;49.220;11.150;2023-04-03T13:46:51;2.13;;;0.90;;
68583;SDS011;55557;49.220;11.150;2023-04-03T13:49:22;2.07;;;1.20;;
68583;SDS011;55557;49.220;11.150;2023-04-03T13:51:53;2.07;;;0.83;;
68583;SDS011;55557;49.220;11.150;2023-04-03T13:54:23;1.17;;;1.03;;
68583;SDS011;55557;49.220;11.150;2023-04-03T13:56:54;5.83;;;1.43;;
68583;SDS011;55557;49.220;11.150;2023-04-03T13:59:23;4.17;;;1.37;;
68583;SDS011;55557;49.220;11.150;2023-04-03T14:01:52;1.57;;;1.00;;
68583;SDS011;55557;49.220;11.150;2023-04-03T14:06:45;2.00;;;0.90;;
68583;SDS011;55557;49.220;11.150;2023-04-03T14:09:11;1.43;;;0.80;;
68583;SDS011;55557;49.220;11.150;2023-04-03T14:11:37;2.20;;;0.80;;
68583;SDS011;55557;49.220;11.150;2023-04-03T14:14:18;2.97;;;1.27;;
68583;SDS011;55557;49.220;11.150;2023-04-03T14:16:47;2.10;;;1.27;;
68583;SDS011;55557;49.220;11.150;2023-04-03T14:19:23;2.23;;;1.17;;
68583;SDS011;55557;49.220;11.150;2023-04-03T14:21:50;1.70;;;0.80;;
68583;SDS011;55557;49.220;11.150;2023-04-03T14:24:17;2.63;;;0.90;;
68583;SDS011;55557;49.220;11.150;2023-04-03T14:26:44;2.20;;;1.00;;
68583;SDS011;55557;49.220;11.150;2023-04-03T14:29:12;0.70;;;0.70;;
68583;SDS011;55557;49.220;11.150;2023-04-03T14:31:38;3.67;;;1.03;;
68583;SDS011;55557;49.220;11.150;2023-04-03T14:34:05;1.13;;;0.97;;
68583;SDS011;55557;49.220;11.150;2023-04-03T14:36:31;1.47;;;0.97;;
68583;SDS011;55557;49.220;11.150;2023-04-03T14:38:58;1.30;;;0.90;;
68583;SDS011;55557;49.220;11.150;2023-04-03T14:41:25;3.63;;;1.67;;
68583;SDS011;55557;49.220;11.150;2023-04-03T14:43:51;0.73;;;0.70;;
68583;SDS011;55557;49.220;11.150;2023-04-03T14:46:39;1.70;;;0.97;;
68583;SDS011;55557;49.220;11.150;2023-04-03T14:49:05;1.50;;;0.80;;
68583;SDS011;55557;49.220;11.150;2023-04-03T14:51:35;1.93;;;0.83;;
68583;SDS011;55557;49.220;11.150;2023-04-03T14:54:02;2.17;;;0.80;;
68583;SDS011;55557;49.220;11.150;2023-04-03T14:56:29;1.30;;;0.80;;
68583;SDS011;55557;49.220;11.150;2023-04-03T14:58:56;2.23;;;1.07;;
68583;SDS011;55557;49.220;11.150;2023-04-03T15:01:22;1.10;;;0.80;;
68583;SDS011;55557;49.220;11.150;2023-04-03T15:03:48;0.60;;;0.60;;
68583;SDS011;55557;49.220;11.150;2023-04-03T15:06:15;4.07;;;0.90;;
68583;SDS011;55557;49.220;11.150;2023-04-03T15:08:41;1.33;;;0.90;;
68583;SDS011;55557;49.220;11.150;2023-04-03T15:11:09;1.30;;;0.77;;
68583;SDS011;55557;49.220;11.150;2023-04-03T15:13:35;1.20;;;0.63;;
68583;SDS011;55557;49.220;11.150;2023-04-03T15:16:01;1.47;;;0.90;;
68583;SDS011;55557;49.220;11.150;2023-04-03T15:18:29;2.73;;;1.07;;
68583;SDS011;55557;49.220;11.150;2023-04-03T15:20:55;1.23;;;0.90;;
68583;SDS011;55557;49.220;11.150;2023-04-03T15:23:21;1.70;;;0.90;;
68583;SDS011;55557;49.220;11.150;2023-04-03T15:25:51;1.17;;;0.70;;
68583;SDS011;55557;49.220;11.150;2023-04-03T15:28:19;0.60;;;0.50;;
68583;SDS011;55557;49.220;11.150;2023-04-03T15:30:47;1.00;;;0.73;;
68583;SDS011;55557;49.220;11.150;2023-04-03T15:33:13;1.23;;;0.97;;
68583;SDS011;55557;49.220;11.150;2023-04-03T15:35:40;1.47;;;0.80;;
68583;SDS011;55557;49.220;11.150;2023-04-03T15:38:06;3.23;;;1.20;;
68583;SDS011;55557;49.220;11.150;2023-04-03T15:40:32;0.97;;;0.80;;
68583;SDS011;55557;49.220;11.150;2023-04-03T15:42:58;1.23;;;0.93;;
68583;SDS011;55557;49.220;11.150;2023-04-03T15:45:24;0.70;;;0.70;;
68583;SDS011;55557;49.220;11.150;2023-04-03T15:47:52;1.77;;;1.03;;
68583;SDS011;55557;49.220;11.150;2023-04-03T15:50:18;1.80;;;0.90;;
68583;SDS011;55557;49.220;11.150;2023-04-03T15:52:44;1.10;;;1.00;;
68583;SDS011;55557;49.220;11.150;2023-04-03T15:55:10;2.03;;;0.80;;
68583;SDS011;55557;49.220;11.150;2023-04-03T15:57:36;1.13;;;0.97;;
68583;SDS011;55557;49.220;11.150;2023-04-03T16:00:03;2.20;;;0.93;;
68583;SDS011;55557;49.220;11.150;2023-04-03T16:02:29;2.17;;;1.40;;
68583;SDS011;55557;49.220;11.150;2023-04-03T16:04:55;2.10;;;1.33;;